Terminal Aerodrome Forecast
Issued by NWS Upton, NY

Home | Current Version | Previous Version | Text Only | Print | Product List | Glossary On
Versions: 1 2 3 4 5 6 7 8 9 10 11 12 13 14 15 16 17 18 19 20 21 22 23 24 25 26 27 28 29 30
000
FTUS41 KOKX 061130
TAFISP
TAF
KISP 061130Z 0612/0712 21005KT P6SM SCT150 BKN200
     FM061500 19007KT P6SM SCT150 BKN200
     FM061800 17009KT P6SM BKN100
     FM062100 16009KT P6SM BKN080
     FM070000 17007KT P6SM SCT060 BKN100
     FM070400 17006KT 6SM BR SCT015 BKN150
     FM070600 17006KT 4SM BR BKN015
     FM070800 17006KT 2SM BR BKN004=

USA.gov is the U.S. government's official web portal to all federal, state and local government web resources and services.